sensor_id;sensor_type;location;lat;lon;timestamp;temperature;humidity
44136;DHT22;29798;51.064;13.734;2022-08-18T00:02:15;21.90;99.90
44136;DHT22;29798;51.064;13.734;2022-08-18T00:04:42;21.90;99.90
44136;DHT22;29798;51.064;13.734;2022-08-18T00:07:10;21.90;99.90
44136;DHT22;29798;51.064;13.734;2022-08-18T00:09:38;21.90;99.90
44136;DHT22;29798;51.064;13.734;2022-08-18T00:12:07;21.90;99.90
44136;DHT22;29798;51.064;13.734;2022-08-18T00:14:37;21.90;99.90
44136;DHT22;29798;51.064;13.734;2022-08-18T00:17:03;21.80;99.90
44136;DHT22;29798;51.064;13.734;2022-08-18T00:19:28;21.80;99.90
44136;DHT22;29798;51.064;13.734;2022-08-18T00:21:54;21.80;99.90
44136;DHT22;29798;51.064;13.734;2022-08-18T00:24:20;21.80;99.90
44136;DHT22;29798;51.064;13.734;2022-08-18T00:26:46;21.70;99.90
44136;DHT22;29798;51.064;13.734;2022-08-18T00:29:11;21.70;99.90
44136;DHT22;29798;51.064;13.734;2022-08-18T00:31:37;21.70;99.90
44136;DHT22;29798;51.064;13.734;2022-08-18T00:34:03;21.80;99.90
44136;DHT22;29798;51.064;13.734;2022-08-18T00:36:28;21.70;99.90
44136;DHT22;29798;51.064;13.734;2022-08-18T00:38:56;21.60;99.90
44136;DHT22;29798;51.064;13.734;2022-08-18T00:41:22;21.60;99.90
44136;DHT22;29798;51.064;13.734;2022-08-18T00:43:51;21.60;99.90
44136;DHT22;29798;51.064;13.734;2022-08-18T00:48:50;21.60;99.90
44136;DHT22;29798;51.064;13.734;2022-08-18T00:51:22;21.60;99.90
44136;DHT22;29798;51.064;13.734;2022-08-18T00:56:27;21.60;99.90
44136;DHT22;29798;51.064;13.734;2022-08-18T00:58:56;21.50;99.90
44136;DHT22;29798;51.064;13.734;2022-08-18T01:01:25;21.40;99.90
44136;DHT22;29798;51.064;13.734;2022-08-18T01:03:55;21.40;99.90
44136;DHT22;29798;51.064;13.734;2022-08-18T01:09:04;21.30;99.90
44136;DHT22;29798;51.064;13.734;2022-08-18T01:11:31;21.30;99.90
44136;DHT22;29798;51.064;13.734;2022-08-18T01:13:57;21.20;99.90
44136;DHT22;29798;51.064;13.734;2022-08-18T01:16:23;21.10;99.90
44136;DHT22;29798;51.064;13.734;2022-08-18T01:19:07;21.10;99.90
44136;DHT22;29798;51.064;13.734;2022-08-18T01:21:54;21.10;99.90
44136;DHT22;29798;51.064;13.734;2022-08-18T01:24:26;21.10;99.90
44136;DHT22;29798;51.064;13.734;2022-08-18T01:27:13;21.00;99.90
44136;DHT22;29798;51.064;13.734;2022-08-18T01:29:42;20.90;99.90
44136;DHT22;29798;51.064;13.734;2022-08-18T01:32:20;20.80;99.90
44136;DHT22;29798;51.064;13.734;2022-08-18T01:34:48;20.80;99.90
44136;DHT22;29798;51.064;13.734;2022-08-18T01:37:16;20.80;99.90
44136;DHT22;29798;51.064;13.734;2022-08-18T01:39:44;20.80;99.90
44136;DHT22;29798;51.064;13.734;2022-08-18T01:42:10;20.70;99.90
44136;DHT22;29798;51.064;13.734;2022-08-18T01:44:37;20.70;99.90
44136;DHT22;29798;51.064;13.734;2022-08-18T01:47:06;20.60;99.90
44136;DHT22;29798;51.064;13.734;2022-08-18T01:49:33;20.50;99.90
44136;DHT22;29798;51.064;13.734;2022-08-18T01:51:58;20.40;99.90
44136;DHT22;29798;51.064;13.734;2022-08-18T01:54:24;20.50;99.90
44136;DHT22;29798;51.064;13.734;2022-08-18T01:56:54;20.50;99.90
44136;DHT22;29798;51.064;13.734;2022-08-18T01:59:20;20.50;99.90
44136;DHT22;29798;51.064;13.734;2022-08-18T02:01:46;20.60;99.90
44136;DHT22;29798;51.064;13.734;2022-08-18T02:04:13;20.60;99.90
44136;DHT22;29798;51.064;13.734;2022-08-18T02:06:41;20.70;99.90
44136;DHT22;29798;51.064;13.734;2022-08-18T02:09:07;20.70;99.90
44136;DHT22;29798;51.064;13.734;2022-08-18T02:11:33;20.80;99.90
44136;DHT22;29798;51.064;13.734;2022-08-18T02:13:59;20.90;99.90
44136;DHT22;29798;51.064;13.734;2022-08-18T02:16:25;21.00;99.90
44136;DHT22;29798;51.064;13.734;2022-08-18T02:18:51;21.00;99.90
44136;DHT22;29798;51.064;13.734;2022-08-18T02:21:17;21.00;99.90
44136;DHT22;29798;51.064;13.734;2022-08-18T02:23:45;21.10;99.90
44136;DHT22;29798;51.064;13.734;2022-08-18T02:26:13;21.10;99.90
44136;DHT22;29798;51.064;13.734;2022-08-18T02:28:40;21.10;99.90
44136;DHT22;29798;51.064;13.734;2022-08-18T02:31:07;21.10;99.90
44136;DHT22;29798;51.064;13.734;2022-08-18T02:33:35;21.10;99.90
44136;DHT22;29798;51.064;13.734;2022-08-18T02:36:01;21.10;99.90
44136;DHT22;29798;51.064;13.734;2022-08-18T02:38:28;21.10;99.90
44136;DHT22;29798;51.064;13.734;2022-08-18T02:40:58;21.00;99.90
44136;DHT22;29798;51.064;13.734;2022-08-18T02:43:25;21.00;99.90
44136;DHT22;29798;51.064;13.734;2022-08-18T02:45:53;21.00;99.90
44136;DHT22;29798;51.064;13.734;2022-08-18T02:48:19;21.00;99.90
44136;DHT22;29798;51.064;13.734;2022-08-18T02:53:40;21.00;99.90
44136;DHT22;29798;51.064;13.734;2022-08-18T02:58:51;20.90;99.90
44136;DHT22;29798;51.064;13.734;2022-08-18T03:01:28;20.90;99.90
44136;DHT22;29798;51.064;13.734;2022-08-18T03:03:59;20.90;99.90
44136;DHT22;29798;51.064;13.734;2022-08-18T03:06:25;20.80;99.90
44136;DHT22;29798;51.064;13.734;2022-08-18T03:08:53;20.80;99.90
44136;DHT22;29798;51.064;13.734;2022-08-18T03:11:20;20.80;99.90
44136;DHT22;29798;51.064;13.734;2022-08-18T03:13:48;20.80;99.90
44136;DHT22;29798;51.064;13.734;2022-08-18T03:16:14;20.90;99.90
44136;DHT22;29798;51.064;13.734;2022-08-18T03:18:41;20.80;99.90
44136;DHT22;29798;51.064;13.734;2022-08-18T03:21:08;20.80;99.90
44136;DHT22;29798;51.064;13.734;2022-08-18T03:23:36;20.80;99.90
44136;DHT22;29798;51.064;13.734;2022-08-18T03:26:05;20.80;99.90
44136;DHT22;29798;51.064;13.734;2022-08-18T03:28:42;20.80;99.90
44136;DHT22;29798;51.064;13.734;2022-08-18T03:31:10;20.80;99.90
44136;DHT22;29798;51.064;13.734;2022-08-18T03:33:36;20.80;99.90
44136;DHT22;29798;51.064;13.734;2022-08-18T03:36:03;20.80;99.90
44136;DHT22;29798;51.064;13.734;2022-08-18T03:38:30;20.70;99.90
44136;DHT22;29798;51.064;13.734;2022-08-18T03:40:56;20.70;99.90
44136;DHT22;29798;51.064;13.734;2022-08-18T03:43:22;20.70;99.90
44136;DHT22;29798;51.064;13.734;2022-08-18T03:45:49;20.70;99.90
44136;DHT22;29798;51.064;13.734;2022-08-18T03:48:15;20.70;99.90
44136;DHT22;29798;51.064;13.734;2022-08-18T03:50:41;20.70;99.90
44136;DHT22;29798;51.064;13.734;2022-08-18T03:53:07;20.70;99.90
44136;DHT22;29798;51.064;13.734;2022-08-18T03:55:32;20.70;99.90
44136;DHT22;29798;51.064;13.734;2022-08-18T03:57:59;20.70;99.90
44136;DHT22;29798;51.064;13.734;2022-08-18T04:00:28;20.70;99.90
44136;DHT22;29798;51.064;13.734;2022-08-18T04:02:55;20.70;99.90
44136;DHT22;29798;51.064;13.734;2022-08-18T04:05:21;20.60;99.90
44136;DHT22;29798;51.064;13.734;2022-08-18T04:07:47;20.50;99.90
44136;DHT22;29798;51.064;13.734;2022-08-18T04:10:13;20.50;99.90
44136;DHT22;29798;51.064;13.734;2022-08-18T04:12:39;20.40;99.90
44136;DHT22;29798;51.064;13.734;2022-08-18T04:15:06;20.40;99.90
44136;DHT22;29798;51.064;13.734;2022-08-18T04:17:33;20.40;99.90
44136;DHT22;29798;51.064;13.734;2022-08-18T04:19:59;20.40;99.90
44136;DHT22;29798;51.064;13.734;2022-08-18T04:22:25;20.50;99.90
44136;DHT22;29798;51.064;13.734;2022-08-18T04:24:51;20.50;99.90
44136;DHT22;29798;51.064;13.734;2022-08-18T04:27:18;20.50;99.90
44136;DHT22;29798;51.064;13.734;2022-08-18T04:29:45;20.50;99.90
44136;DHT22;29798;51.064;13.734;2022-08-18T04:32:11;20.60;99.90
44136;DHT22;29798;51.064;13.734;2022-08-18T04:34:36;20.60;99.90
44136;DHT22;29798;51.064;13.734;2022-08-18T04:37:02;20.70;99.90
44136;DHT22;29798;51.064;13.734;2022-08-18T04:39:28;20.70;99.90
44136;DHT22;29798;51.064;13.734;2022-08-18T04:41:55;20.70;99.90
44136;DHT22;29798;51.064;13.734;2022-08-18T04:44:21;20.70;99.90
44136;DHT22;29798;51.064;13.734;2022-08-18T04:46:48;20.70;99.90
44136;DHT22;29798;51.064;13.734;2022-08-18T04:49:17;20.70;99.90
44136;DHT22;29798;51.064;13.734;2022-08-18T04:51:47;20.80;99.90
44136;DHT22;29798;51.064;13.734;2022-08-18T04:54:33;20.80;99.90
44136;DHT22;29798;51.064;13.734;2022-08-18T04:57:10;20.90;99.90
44136;DHT22;29798;51.064;13.734;2022-08-18T04:59:39;20.90;99.90
44136;DHT22;29798;51.064;13.734;2022-08-18T05:02:06;21.00;99.90
44136;DHT22;29798;51.064;13.734;2022-08-18T05:04:33;21.00;99.90
44136;DHT22;29798;51.064;13.734;2022-08-18T05:07:02;21.10;99.90
44136;DHT22;29798;51.064;13.734;2022-08-18T05:09:38;21.10;99.90
44136;DHT22;29798;51.064;13.734;2022-08-18T05:12:04;21.10;99.90
44136;DHT22;29798;51.064;13.734;2022-08-18T05:14:31;21.20;99.90
44136;DHT22;29798;51.064;13.734;2022-08-18T05:16:58;21.30;99.90
44136;DHT22;29798;51.064;13.734;2022-08-18T05:19:24;21.30;99.90
44136;DHT22;29798;51.064;13.734;2022-08-18T05:21:51;22.50;99.90
44136;DHT22;29798;51.064;13.734;2022-08-18T05:24:18;21.30;99.90
44136;DHT22;29798;51.064;13.734;2022-08-18T05:26:45;21.40;99.90
44136;DHT22;29798;51.064;13.734;2022-08-18T05:29:10;21.40;99.90
44136;DHT22;29798;51.064;13.734;2022-08-18T05:31:36;21.30;99.90
44136;DHT22;29798;51.064;13.734;2022-08-18T05:34:02;21.30;99.90
44136;DHT22;29798;51.064;13.734;2022-08-18T05:41:45;21.30;99.90
44136;DHT22;29798;51.064;13.734;2022-08-18T05:44:17;21.30;99.90
44136;DHT22;29798;51.064;13.734;2022-08-18T05:46:52;21.30;99.90
44136;DHT22;29798;51.064;13.734;2022-08-18T05:49:19;21.50;99.90
44136;DHT22;29798;51.064;13.734;2022-08-18T05:52:00;21.60;99.90
44136;DHT22;29798;51.064;13.734;2022-08-18T05:54:36;21.70;99.90
44136;DHT22;29798;51.064;13.734;2022-08-18T05:57:27;21.80;99.90
44136;DHT22;29798;51.064;13.734;2022-08-18T05:59:55;22.00;99.90
44136;DHT22;29798;51.064;13.734;2022-08-18T06:05:29;22.40;99.90
44136;DHT22;29798;51.064;13.734;2022-08-18T06:08:02;22.60;99.90
44136;DHT22;29798;51.064;13.734;2022-08-18T06:10:31;22.80;99.90
44136;DHT22;29798;51.064;13.734;2022-08-18T06:12:57;23.00;99.90
44136;DHT22;29798;51.064;13.734;2022-08-18T06:15:36;23.10;99.90
44136;DHT22;29798;51.064;13.734;2022-08-18T06:37:06;24.30;99.90
44136;DHT22;29798;51.064;13.734;2022-08-18T06:39:38;24.50;99.90
44136;DHT22;29798;51.064;13.734;2022-08-18T06:42:09;24.50;99.90
44136;DHT22;29798;51.064;13.734;2022-08-18T06:44:40;24.60;99.90
44136;DHT22;29798;51.064;13.734;2022-08-18T06:47:31;24.70;99.90
44136;DHT22;29798;51.064;13.734;2022-08-18T06:50:06;24.90;99.90
44136;DHT22;29798;51.064;13.734;2022-08-18T06:52:38;25.10;99.90
44136;DHT22;29798;51.064;13.734;2022-08-18T06:55:09;25.20;99.90
44136;DHT22;29798;51.064;13.734;2022-08-18T07:05:23;25.70;99.90
44136;DHT22;29798;51.064;13.734;2022-08-18T07:08:02;25.80;99.90
44136;DHT22;29798;51.064;13.734;2022-08-18T07:10:38;25.90;99.90
44136;DHT22;29798;51.064;13.734;2022-08-18T07:15:38;26.20;99.90
44136;DHT22;29798;51.064;13.734;2022-08-18T07:18:05;26.50;99.90
44136;DHT22;29798;51.064;13.734;2022-08-18T07:20:48;26.60;99.90
44136;DHT22;29798;51.064;13.734;2022-08-18T07:23:21;26.70;99.90
44136;DHT22;29798;51.064;13.734;2022-08-18T07:26:05;26.80;99.90
44136;DHT22;29798;51.064;13.734;2022-08-18T07:28:38;26.90;99.90
44136;DHT22;29798;51.064;13.734;2022-08-18T07:31:10;26.90;99.90
44136;DHT22;29798;51.064;13.734;2022-08-18T07:33:43;27.00;99.90
44136;DHT22;29798;51.064;13.734;2022-08-18T07:36:12;27.20;99.90
44136;DHT22;29798;51.064;13.734;2022-08-18T07:38:47;27.40;99.90
44136;DHT22;29798;51.064;13.734;2022-08-18T07:41:42;27.60;99.90
44136;DHT22;29798;51.064;13.734;2022-08-18T07:47:33;28.00;99.90
44136;DHT22;29798;51.064;13.734;2022-08-18T07:50:04;28.20;99.90
44136;DHT22;29798;51.064;13.734;2022-08-18T07:52:36;28.30;99.90
44136;DHT22;29798;51.064;13.734;2022-08-18T07:57:43;28.50;99.90
44136;DHT22;29798;51.064;13.734;2022-08-18T08:05:24;29.00;99.90
44136;DHT22;29798;51.064;13.734;2022-08-18T08:16:08;29.60;99.90
44136;DHT22;29798;51.064;13.734;2022-08-18T08:19:06;29.60;99.90
44136;DHT22;29798;51.064;13.734;2022-08-18T08:21:58;29.80;99.90
44136;DHT22;29798;51.064;13.734;2022-08-18T08:24:32;29.90;99.90
44136;DHT22;29798;51.064;13.734;2022-08-18T08:30:34;30.20;99.90
44136;DHT22;29798;51.064;13.734;2022-08-18T08:33:16;30.20;99.90
44136;DHT22;29798;51.064;13.734;2022-08-18T08:35:57;30.20;99.90
44136;DHT22;29798;51.064;13.734;2022-08-18T08:43:46;30.30;99.90
44136;DHT22;29798;51.064;13.734;2022-08-18T08:46:21;30.40;99.90
44136;DHT22;29798;51.064;13.734;2022-08-18T08:48:50;30.60;99.90
44136;DHT22;29798;51.064;13.734;2022-08-18T08:57:03;31.60;98.90
44136;DHT22;29798;51.064;13.734;2022-08-18T08:59:29;32.00;98.10
44136;DHT22;29798;51.064;13.734;2022-08-18T09:13:16;31.40;97.70
44136;DHT22;29798;51.064;13.734;2022-08-18T09:16:05;31.50;97.80
44136;DHT22;29798;51.064;13.734;2022-08-18T09:24:52;31.90;97.20
44136;DHT22;29798;51.064;13.734;2022-08-18T09:30:07;32.50;96.30
44136;DHT22;29798;51.064;13.734;2022-08-18T09:32:40;32.60;95.00
44136;DHT22;29798;51.064;13.734;2022-08-18T09:37:59;32.60;94.60
44136;DHT22;29798;51.064;13.734;2022-08-18T09:40:50;32.60;94.40
44136;DHT22;29798;51.064;13.734;2022-08-18T09:43:38;32.60;94.40
44136;DHT22;29798;51.064;13.734;2022-08-18T09:51:48;32.70;93.60
44136;DHT22;29798;51.064;13.734;2022-08-18T09:54:16;32.50;93.90
44136;DHT22;29798;51.064;13.734;2022-08-18T10:01:58;32.10;94.30
44136;DHT22;29798;51.064;13.734;2022-08-18T10:04:47;32.00;94.70
44136;DHT22;29798;51.064;13.734;2022-08-18T10:15:58;31.80;94.90
44136;DHT22;29798;51.064;13.734;2022-08-18T10:26:28;31.90;94.70
44136;DHT22;29798;51.064;13.734;2022-08-18T10:37:12;30.70;95.60
44136;DHT22;29798;51.064;13.734;2022-08-18T10:42:09;30.40;95.90
44136;DHT22;29798;51.064;13.734;2022-08-18T10:44:45;30.30;97.00
44136;DHT22;29798;51.064;13.734;2022-08-18T10:47:37;30.30;96.90
44136;DHT22;29798;51.064;13.734;2022-08-18T10:50:16;30.30;96.30
44136;DHT22;29798;51.064;13.734;2022-08-18T10:53:05;30.20;96.20
44136;DHT22;29798;51.064;13.734;2022-08-18T10:55:39;30.10;96.30
44136;DHT22;29798;51.064;13.734;2022-08-18T10:58:36;30.10;96.70
44136;DHT22;29798;51.064;13.734;2022-08-18T11:01:34;30.20;97.30
44136;DHT22;29798;51.064;13.734;2022-08-18T11:04:33;30.10;96.70
44136;DHT22;29798;51.064;13.734;2022-08-18T11:09:29;30.00;97.10
44136;DHT22;29798;51.064;13.734;2022-08-18T11:11:57;30.00;97.20
44136;DHT22;29798;51.064;13.734;2022-08-18T11:17:38;29.90;97.30
44136;DHT22;29798;51.064;13.734;2022-08-18T11:20:12;29.80;97.20
44136;DHT22;29798;51.064;13.734;2022-08-18T11:22:48;29.60;97.10
44136;DHT22;29798;51.064;13.734;2022-08-18T11:25:19;29.60;97.40
44136;DHT22;29798;51.064;13.734;2022-08-18T11:27:46;29.70;97.40
44136;DHT22;29798;51.064;13.734;2022-08-18T11:30:13;29.80;97.40
44136;DHT22;29798;51.064;13.734;2022-08-18T11:32:39;29.80;97.10
44136;DHT22;29798;51.064;13.734;2022-08-18T11:35:14;29.80;97.20
44136;DHT22;29798;51.064;13.734;2022-08-18T11:38:09;29.80;98.00
44136;DHT22;29798;51.064;13.734;2022-08-18T11:40:47;29.40;98.70
44136;DHT22;29798;51.064;13.734;2022-08-18T11:45:56;29.10;99.90
44136;DHT22;29798;51.064;13.734;2022-08-18T11:48:43;29.00;99.90
44136;DHT22;29798;51.064;13.734;2022-08-18T11:53:52;28.70;99.90
44136;DHT22;29798;51.064;13.734;2022-08-18T11:56:41;28.70;99.90
44136;DHT22;29798;51.064;13.734;2022-08-18T12:01:52;28.70;99.90
44136;DHT22;29798;51.064;13.734;2022-08-18T12:09:26;28.30;99.90
44136;DHT22;29798;51.064;13.734;2022-08-18T12:14:59;28.10;99.90
44136;DHT22;29798;51.064;13.734;2022-08-18T12:17:41;28.10;99.90
44136;DHT22;29798;51.064;13.734;2022-08-18T12:20:08;28.10;99.90
44136;DHT22;29798;51.064;13.734;2022-08-18T12:22:36;28.20;99.90
44136;DHT22;29798;51.064;13.734;2022-08-18T12:25:05;28.30;99.90
44136;DHT22;29798;51.064;13.734;2022-08-18T12:27:37;28.60;99.90
44136;DHT22;29798;51.064;13.734;2022-08-18T12:30:03;28.80;99.90
44136;DHT22;29798;51.064;13.734;2022-08-18T12:32:35;28.90;99.90
44136;DHT22;29798;51.064;13.734;2022-08-18T12:35:02;28.80;99.90
44136;DHT22;29798;51.064;13.734;2022-08-18T12:37:32;28.90;99.90
44136;DHT22;29798;51.064;13.734;2022-08-18T12:39:59;29.10;99.90
44136;DHT22;29798;51.064;13.734;2022-08-18T12:42:30;29.40;99.90
44136;DHT22;29798;51.064;13.734;2022-08-18T12:44:56;29.70;99.90
44136;DHT22;29798;51.064;13.734;2022-08-18T12:47:24;29.80;99.90
44136;DHT22;29798;51.064;13.734;2022-08-18T12:49:50;29.90;99.90
44136;DHT22;29798;51.064;13.734;2022-08-18T12:52:19;30.00;99.90
44136;DHT22;29798;51.064;13.734;2022-08-18T12:54:45;30.00;99.70
44136;DHT22;29798;51.064;13.734;2022-08-18T12:57:22;30.10;99.90
44136;DHT22;29798;51.064;13.734;2022-08-18T12:59:48;30.10;99.60
44136;DHT22;29798;51.064;13.734;2022-08-18T13:02:14;29.90;99.50
44136;DHT22;29798;51.064;13.734;2022-08-18T13:04:44;29.80;99.90
44136;DHT22;29798;51.064;13.734;2022-08-18T13:07:10;29.80;99.80
44136;DHT22;29798;51.064;13.734;2022-08-18T13:09:38;29.90;99.70
44136;DHT22;29798;51.064;13.734;2022-08-18T13:12:04;30.00;99.60
44136;DHT22;29798;51.064;13.734;2022-08-18T13:14:34;30.00;99.90
44136;DHT22;29798;51.064;13.734;2022-08-18T13:17:00;30.00;99.60
44136;DHT22;29798;51.064;13.734;2022-08-18T13:19:51;30.00;99.90
44136;DHT22;29798;51.064;13.734;2022-08-18T13:22:19;30.00;99.90
44136;DHT22;29798;51.064;13.734;2022-08-18T13:24:44;30.10;99.90
44136;DHT22;29798;51.064;13.734;2022-08-18T13:27:12;30.30;99.90
44136;DHT22;29798;51.064;13.734;2022-08-18T13:29:40;30.40;99.30
44136;DHT22;29798;51.064;13.734;2022-08-18T13:32:11;30.50;98.90
44136;DHT22;29798;51.064;13.734;2022-08-18T13:34:36;30.80;98.80
44136;DHT22;29798;51.064;13.734;2022-08-18T13:37:06;31.60;98.10
44136;DHT22;29798;51.064;13.734;2022-08-18T13:39:32;32.70;97.10
44136;DHT22;29798;51.064;13.734;2022-08-18T13:48:10;34.90;93.30
44136;DHT22;29798;51.064;13.734;2022-08-18T13:50:36;34.10;93.20
44136;DHT22;29798;51.064;13.734;2022-08-18T13:53:07;33.50;94.60
44136;DHT22;29798;51.064;13.734;2022-08-18T13:55:41;33.00;95.30
44136;DHT22;29798;51.064;13.734;2022-08-18T13:58:07;33.20;95.40
44136;DHT22;29798;51.064;13.734;2022-08-18T14:00:35;34.30;94.50
44136;DHT22;29798;51.064;13.734;2022-08-18T14:03:00;35.70;92.50
44136;DHT22;29798;51.064;13.734;2022-08-18T14:05:29;36.90;90.90
44136;DHT22;29798;51.064;13.734;2022-08-18T14:07:56;37.50;90.00
44136;DHT22;29798;51.064;13.734;2022-08-18T14:10:22;37.30;88.40
44136;DHT22;29798;51.064;13.734;2022-08-18T14:12:51;36.30;89.50
44136;DHT22;29798;51.064;13.734;2022-08-18T14:15:20;35.40;91.20
44136;DHT22;29798;51.064;13.734;2022-08-18T14:17:47;35.60;91.00
44136;DHT22;29798;51.064;13.734;2022-08-18T14:20:17;35.30;91.20
44136;DHT22;29798;51.064;13.734;2022-08-18T14:23:03;34.80;91.50
44136;DHT22;29798;51.064;13.734;2022-08-18T14:25:50;34.30;91.90
44136;DHT22;29798;51.064;13.734;2022-08-18T14:28:36;33.70;92.50
44136;DHT22;29798;51.064;13.734;2022-08-18T14:31:02;33.50;93.50
44136;DHT22;29798;51.064;13.734;2022-08-18T14:33:31;34.00;93.10
44136;DHT22;29798;51.064;13.734;2022-08-18T14:35:57;34.80;92.20
44136;DHT22;29798;51.064;13.734;2022-08-18T14:38:23;34.90;91.70
44136;DHT22;29798;51.064;13.734;2022-08-18T14:40:49;34.80;91.90
44136;DHT22;29798;51.064;13.734;2022-08-18T14:43:17;34.80;92.10
44136;DHT22;29798;51.064;13.734;2022-08-18T14:45:46;35.00;92.20
44136;DHT22;29798;51.064;13.734;2022-08-18T14:48:18;35.20;91.60
44136;DHT22;29798;51.064;13.734;2022-08-18T14:50:49;35.20;91.30
44136;DHT22;29798;51.064;13.734;2022-08-18T14:53:17;34.70;92.20
44136;DHT22;29798;51.064;13.734;2022-08-18T14:55:48;34.00;92.70
44136;DHT22;29798;51.064;13.734;2022-08-18T14:58:18;33.60;93.30
44136;DHT22;29798;51.064;13.734;2022-08-18T15:00:45;33.10;93.60
44136;DHT22;29798;51.064;13.734;2022-08-18T15:03:13;32.90;94.20
44136;DHT22;29798;51.064;13.734;2022-08-18T15:05:40;33.40;93.70
44136;DHT22;29798;51.064;13.734;2022-08-18T15:08:05;33.90;93.50
44136;DHT22;29798;51.064;13.734;2022-08-18T15:10:32;33.80;93.60
44136;DHT22;29798;51.064;13.734;2022-08-18T15:12:57;33.40;93.80
44136;DHT22;29798;51.064;13.734;2022-08-18T15:15:25;33.60;93.70
44136;DHT22;29798;51.064;13.734;2022-08-18T15:17:51;33.80;93.50
44136;DHT22;29798;51.064;13.734;2022-08-18T15:20:17;34.10;93.30
44136;DHT22;29798;51.064;13.734;2022-08-18T15:22:44;34.20;93.20
44136;DHT22;29798;51.064;13.734;2022-08-18T15:25:28;34.30;93.10
44136;DHT22;29798;51.064;13.734;2022-08-18T15:28:11;34.40;92.90
44136;DHT22;29798;51.064;13.734;2022-08-18T15:30:42;34.60;92.50
44136;DHT22;29798;51.064;13.734;2022-08-18T15:33:09;34.90;92.60
44136;DHT22;29798;51.064;13.734;2022-08-18T15:35:35;35.10;92.00
44136;DHT22;29798;51.064;13.734;2022-08-18T15:38:03;34.70;92.30
44136;DHT22;29798;51.064;13.734;2022-08-18T15:40:29;34.80;92.60
44136;DHT22;29798;51.064;13.734;2022-08-18T15:42:57;35.50;92.00
44136;DHT22;29798;51.064;13.734;2022-08-18T15:45:27;36.40;91.00
44136;DHT22;29798;51.064;13.734;2022-08-18T15:47:57;36.90;90.20
44136;DHT22;29798;51.064;13.734;2022-08-18T15:50:23;36.90;89.60
44136;DHT22;29798;51.064;13.734;2022-08-18T15:52:50;36.60;90.10
44136;DHT22;29798;51.064;13.734;2022-08-18T15:55:18;36.40;90.20
44136;DHT22;29798;51.064;13.734;2022-08-18T15:57:45;36.60;90.20
44136;DHT22;29798;51.064;13.734;2022-08-18T16:00:11;37.00;89.40
44136;DHT22;29798;51.064;13.734;2022-08-18T16:02:42;37.30;88.90
44136;DHT22;29798;51.064;13.734;2022-08-18T16:05:13;37.20;88.80
44136;DHT22;29798;51.064;13.734;2022-08-18T16:07:39;37.00;88.40
44136;DHT22;29798;51.064;13.734;2022-08-18T16:10:11;36.70;89.20
44136;DHT22;29798;51.064;13.734;2022-08-18T16:12:38;36.20;90.10
44136;DHT22;29798;51.064;13.734;2022-08-18T16:15:04;35.10;90.90
44136;DHT22;29798;51.064;13.734;2022-08-18T16:17:35;33.80;92.20
44136;DHT22;29798;51.064;13.734;2022-08-18T16:20:02;32.90;93.70
44136;DHT22;29798;51.064;13.734;2022-08-18T16:22:30;32.10;94.80
44136;DHT22;29798;51.064;13.734;2022-08-18T16:24:57;31.50;96.00
44136;DHT22;29798;51.064;13.734;2022-08-18T16:27:23;31.10;96.60
44136;DHT22;29798;51.064;13.734;2022-08-18T16:29:49;30.60;97.40
44136;DHT22;29798;51.064;13.734;2022-08-18T16:32:15;30.10;98.10
44136;DHT22;29798;51.064;13.734;2022-08-18T16:34:40;29.80;98.70
44136;DHT22;29798;51.064;13.734;2022-08-18T16:37:06;29.50;99.30
44136;DHT22;29798;51.064;13.734;2022-08-18T16:39:35;29.40;99.90
44136;DHT22;29798;51.064;13.734;2022-08-18T16:42:01;29.20;99.90
44136;DHT22;29798;51.064;13.734;2022-08-18T16:44:29;29.10;99.90
44136;DHT22;29798;51.064;13.734;2022-08-18T16:46:57;29.00;99.90
44136;DHT22;29798;51.064;13.734;2022-08-18T16:49:26;28.90;99.90
44136;DHT22;29798;51.064;13.734;2022-08-18T16:51:52;28.90;99.90
44136;DHT22;29798;51.064;13.734;2022-08-18T16:54:19;28.90;99.90
44136;DHT22;29798;51.064;13.734;2022-08-18T16:56:44;28.90;99.90
44136;DHT22;29798;51.064;13.734;2022-08-18T16:59:10;28.80;99.90
44136;DHT22;29798;51.064;13.734;2022-08-18T17:01:55;28.70;99.90
44136;DHT22;29798;51.064;13.734;2022-08-18T17:04:59;28.50;99.90
44136;DHT22;29798;51.064;13.734;2022-08-18T17:07:27;28.40;99.90
44136;DHT22;29798;51.064;13.734;2022-08-18T17:09:54;28.30;99.90
44136;DHT22;29798;51.064;13.734;2022-08-18T17:12:21;28.20;99.90
44136;DHT22;29798;51.064;13.734;2022-08-18T17:14:47;28.10;99.90
44136;DHT22;29798;51.064;13.734;2022-08-18T17:17:13;28.10;99.90
44136;DHT22;29798;51.064;13.734;2022-08-18T17:19:42;28.10;99.90
44136;DHT22;29798;51.064;13.734;2022-08-18T17:22:10;28.10;99.90
44136;DHT22;29798;51.064;13.734;2022-08-18T17:24:37;28.00;99.90
44136;DHT22;29798;51.064;13.734;2022-08-18T17:27:17;28.00;99.90
44136;DHT22;29798;51.064;13.734;2022-08-18T17:32:41;27.80;99.90
44136;DHT22;29798;51.064;13.734;2022-08-18T17:35:15;27.80;99.90
44136;DHT22;29798;51.064;13.734;2022-08-18T17:38:07;27.80;99.90
44136;DHT22;29798;51.064;13.734;2022-08-18T17:40:42;27.80;99.90
44136;DHT22;29798;51.064;13.734;2022-08-18T17:43:10;27.80;99.90
44136;DHT22;29798;51.064;13.734;2022-08-18T17:45:38;27.70;99.90
44136;DHT22;29798;51.064;13.734;2022-08-18T17:48:48;27.60;99.90
44136;DHT22;29798;51.064;13.734;2022-08-18T17:57:08;27.20;99.90
44136;DHT22;29798;51.064;13.734;2022-08-18T17:59:40;27.10;99.90
44136;DHT22;29798;51.064;13.734;2022-08-18T18:02:12;27.00;99.90
44136;DHT22;29798;51.064;13.734;2022-08-18T18:04:43;26.90;99.90
44136;DHT22;29798;51.064;13.734;2022-08-18T18:07:26;26.90;99.90
44136;DHT22;29798;51.064;13.734;2022-08-18T18:12:27;26.70;99.90
44136;DHT22;29798;51.064;13.734;2022-08-18T18:14:55;26.60;99.90
44136;DHT22;29798;51.064;13.734;2022-08-18T18:17:26;26.50;99.90
44136;DHT22;29798;51.064;13.734;2022-08-18T18:22:50;26.50;99.90
44136;DHT22;29798;51.064;13.734;2022-08-18T18:25:30;25.90;99.90
44136;DHT22;29798;51.064;13.734;2022-08-18T18:27:57;24.70;99.90
44136;DHT22;29798;51.064;13.734;2022-08-18T18:30:23;23.80;99.90
44136;DHT22;29798;51.064;13.734;2022-08-18T18:33:02;23.20;99.90
44136;DHT22;29798;51.064;13.734;2022-08-18T18:35:31;22.70;99.90
44136;DHT22;29798;51.064;13.734;2022-08-18T18:38:32;22.30;99.90
44136;DHT22;29798;51.064;13.734;2022-08-18T18:41:04;22.00;99.90
44136;DHT22;29798;51.064;13.734;2022-08-18T19:00:03;21.90;99.90
44136;DHT22;29798;51.064;13.734;2022-08-18T19:05:32;22.40;99.90